sensor_id;sensor_type;location;lat;lon;timestamp;temperature;humidity
10828;DHT22;5467;59.334;13.512;2022-10-18T00:00:13;8.40;99.90
10828;DHT22;5467;59.334;13.512;2022-10-18T00:02:40;8.40;99.90
10828;DHT22;5467;59.334;13.512;2022-10-18T00:05:07;8.40;99.90
10828;DHT22;5467;59.334;13.512;2022-10-18T00:07:34;8.40;99.90
10828;DHT22;5467;59.334;13.512;2022-10-18T00:10:02;8.40;99.90
10828;DHT22;5467;59.334;13.512;2022-10-18T00:12:32;8.50;99.90
10828;DHT22;5467;59.334;13.512;2022-10-18T00:14:59;8.40;99.90
10828;DHT22;5467;59.334;13.512;2022-10-18T00:17:27;8.40;99.90
10828;DHT22;5467;59.334;13.512;2022-10-18T00:19:54;8.40;99.90
10828;DHT22;5467;59.334;13.512;2022-10-18T00:22:22;8.40;99.90
10828;DHT22;5467;59.334;13.512;2022-10-18T00:24:50;8.30;99.90
10828;DHT22;5467;59.334;13.512;2022-10-18T00:27:17;8.40;99.90
10828;DHT22;5467;59.334;13.512;2022-10-18T00:29:44;8.30;99.90
10828;DHT22;5467;59.334;13.512;2022-10-18T00:32:11;8.40;99.90
10828;DHT22;5467;59.334;13.512;2022-10-18T00:34:40;8.40;99.90
10828;DHT22;5467;59.334;13.512;2022-10-18T00:37:07;8.40;99.90
10828;DHT22;5467;59.334;13.512;2022-10-18T00:39:34;8.40;99.90
10828;DHT22;5467;59.334;13.512;2022-10-18T00:42:01;8.40;99.90
10828;DHT22;5467;59.334;13.512;2022-10-18T00:45:01;8.40;99.90
10828;DHT22;5467;59.334;13.512;2022-10-18T00:47:31;8.40;99.90
10828;DHT22;5467;59.334;13.512;2022-10-18T00:50:01;8.40;99.90
10828;DHT22;5467;59.334;13.512;2022-10-18T00:52:33;8.40;99.90
10828;DHT22;5467;59.334;13.512;2022-10-18T00:55:01;8.40;99.90
10828;DHT22;5467;59.334;13.512;2022-10-18T00:57:28;8.40;99.90
10828;DHT22;5467;59.334;13.512;2022-10-18T00:59:56;8.50;99.90
10828;DHT22;5467;59.334;13.512;2022-10-18T01:02:24;8.50;99.90
10828;DHT22;5467;59.334;13.512;2022-10-18T01:04:51;8.50;99.90
10828;DHT22;5467;59.334;13.512;2022-10-18T01:07:32;8.50;99.90
10828;DHT22;5467;59.334;13.512;2022-10-18T01:10:07;8.50;99.90
10828;DHT22;5467;59.334;13.512;2022-10-18T01:12:48;8.40;99.90
10828;DHT22;5467;59.334;13.512;2022-10-18T01:15:25;8.50;99.90
10828;DHT22;5467;59.334;13.512;2022-10-18T01:17:58;8.50;99.90
10828;DHT22;5467;59.334;13.512;2022-10-18T01:23:59;8.40;99.90
10828;DHT22;5467;59.334;13.512;2022-10-18T01:26:40;8.40;99.90
10828;DHT22;5467;59.334;13.512;2022-10-18T01:29:16;8.40;99.90
10828;DHT22;5467;59.334;13.512;2022-10-18T01:31:48;8.30;99.90
10828;DHT22;5467;59.334;13.512;2022-10-18T01:34:18;8.30;99.90
10828;DHT22;5467;59.334;13.512;2022-10-18T01:36:47;8.30;99.90
10828;DHT22;5467;59.334;13.512;2022-10-18T01:39:20;8.30;99.90
10828;DHT22;5467;59.334;13.512;2022-10-18T01:41:50;8.30;99.90
10828;DHT22;5467;59.334;13.512;2022-10-18T01:44:22;8.30;99.90
10828;DHT22;5467;59.334;13.512;2022-10-18T01:46:52;8.30;99.90
10828;DHT22;5467;59.334;13.512;2022-10-18T01:49:20;8.30;99.90
10828;DHT22;5467;59.334;13.512;2022-10-18T01:51:47;8.30;99.90
10828;DHT22;5467;59.334;13.512;2022-10-18T01:54:18;8.30;99.90
10828;DHT22;5467;59.334;13.512;2022-10-18T01:56:53;8.40;99.90
10828;DHT22;5467;59.334;13.512;2022-10-18T01:59:32;8.40;99.90
10828;DHT22;5467;59.334;13.512;2022-10-18T02:02:08;8.40;99.90
10828;DHT22;5467;59.334;13.512;2022-10-18T02:04:43;8.40;99.90
10828;DHT22;5467;59.334;13.512;2022-10-18T02:07:17;8.40;99.90
10828;DHT22;5467;59.334;13.512;2022-10-18T02:09:58;8.40;99.90
10828;DHT22;5467;59.334;13.512;2022-10-18T02:12:28;8.40;99.90
10828;DHT22;5467;59.334;13.512;2022-10-18T02:14:58;8.40;99.90
10828;DHT22;5467;59.334;13.512;2022-10-18T02:17:29;8.40;99.90
10828;DHT22;5467;59.334;13.512;2022-10-18T02:19:57;8.40;99.90
10828;DHT22;5467;59.334;13.512;2022-10-18T02:22:28;8.30;99.90
10828;DHT22;5467;59.334;13.512;2022-10-18T02:24:58;8.30;99.90
10828;DHT22;5467;59.334;13.512;2022-10-18T02:27:28;8.20;99.90
10828;DHT22;5467;59.334;13.512;2022-10-18T02:29:55;8.30;99.90
10828;DHT22;5467;59.334;13.512;2022-10-18T02:32:26;8.20;99.90
10828;DHT22;5467;59.334;13.512;2022-10-18T02:35:00;8.30;99.90
10828;DHT22;5467;59.334;13.512;2022-10-18T02:37:31;8.20;99.90
10828;DHT22;5467;59.334;13.512;2022-10-18T02:40:00;8.20;99.90
10828;DHT22;5467;59.334;13.512;2022-10-18T02:42:33;8.10;99.90
10828;DHT22;5467;59.334;13.512;2022-10-18T02:45:00;8.10;99.90
10828;DHT22;5467;59.334;13.512;2022-10-18T02:47:27;8.10;99.90
10828;DHT22;5467;59.334;13.512;2022-10-18T02:49:54;8.10;99.90
10828;DHT22;5467;59.334;13.512;2022-10-18T02:52:22;8.10;99.90
10828;DHT22;5467;59.334;13.512;2022-10-18T02:54:49;8.10;99.90
10828;DHT22;5467;59.334;13.512;2022-10-18T02:57:16;8.10;99.90
10828;DHT22;5467;59.334;13.512;2022-10-18T02:59:43;8.20;99.90
10828;DHT22;5467;59.334;13.512;2022-10-18T03:02:10;8.20;99.90
10828;DHT22;5467;59.334;13.512;2022-10-18T03:04:37;8.10;99.90
10828;DHT22;5467;59.334;13.512;2022-10-18T03:07:04;8.10;99.90
10828;DHT22;5467;59.334;13.512;2022-10-18T03:09:32;8.10;99.90
10828;DHT22;5467;59.334;13.512;2022-10-18T03:11:59;8.10;99.90
10828;DHT22;5467;59.334;13.512;2022-10-18T03:14:26;8.20;99.90
10828;DHT22;5467;59.334;13.512;2022-10-18T03:16:53;8.30;99.90
10828;DHT22;5467;59.334;13.512;2022-10-18T03:19:20;8.30;99.90
10828;DHT22;5467;59.334;13.512;2022-10-18T03:21:48;8.50;99.90
10828;DHT22;5467;59.334;13.512;2022-10-18T03:24:15;8.50;99.90
10828;DHT22;5467;59.334;13.512;2022-10-18T03:26:43;8.40;99.90
10828;DHT22;5467;59.334;13.512;2022-10-18T03:29:10;8.30;99.90
10828;DHT22;5467;59.334;13.512;2022-10-18T03:31:38;8.30;99.90
10828;DHT22;5467;59.334;13.512;2022-10-18T03:34:04;8.30;99.90
10828;DHT22;5467;59.334;13.512;2022-10-18T03:36:31;8.20;99.90
10828;DHT22;5467;59.334;13.512;2022-10-18T03:38:59;8.20;99.90
10828;DHT22;5467;59.334;13.512;2022-10-18T03:41:27;8.20;99.90
10828;DHT22;5467;59.334;13.512;2022-10-18T03:43:55;8.20;99.90
10828;DHT22;5467;59.334;13.512;2022-10-18T03:46:22;8.10;99.90
10828;DHT22;5467;59.334;13.512;2022-10-18T03:48:49;8.10;99.90
10828;DHT22;5467;59.334;13.512;2022-10-18T03:51:16;8.00;99.90
10828;DHT22;5467;59.334;13.512;2022-10-18T03:53:43;8.00;99.90
10828;DHT22;5467;59.334;13.512;2022-10-18T03:56:10;8.00;99.90
10828;DHT22;5467;59.334;13.512;2022-10-18T03:58:37;8.00;99.90
10828;DHT22;5467;59.334;13.512;2022-10-18T04:01:05;8.10;99.90
10828;DHT22;5467;59.334;13.512;2022-10-18T04:03:32;8.10;99.90
10828;DHT22;5467;59.334;13.512;2022-10-18T04:05:59;8.20;99.90
10828;DHT22;5467;59.334;13.512;2022-10-18T04:08:28;8.10;99.90
10828;DHT22;5467;59.334;13.512;2022-10-18T04:10:55;8.30;99.90
10828;DHT22;5467;59.334;13.512;2022-10-18T04:13:22;8.40;99.90
10828;DHT22;5467;59.334;13.512;2022-10-18T04:15:49;8.50;99.90
10828;DHT22;5467;59.334;13.512;2022-10-18T04:18:17;8.60;99.90
10828;DHT22;5467;59.334;13.512;2022-10-18T04:20:44;8.60;99.90
10828;DHT22;5467;59.334;13.512;2022-10-18T04:23:11;8.70;99.90
10828;DHT22;5467;59.334;13.512;2022-10-18T04:25:38;8.70;99.90
10828;DHT22;5467;59.334;13.512;2022-10-18T04:28:05;8.70;99.90
10828;DHT22;5467;59.334;13.512;2022-10-18T04:30:31;8.70;99.90
10828;DHT22;5467;59.334;13.512;2022-10-18T04:32:59;8.60;99.90
10828;DHT22;5467;59.334;13.512;2022-10-18T04:35:27;8.60;99.90
10828;DHT22;5467;59.334;13.512;2022-10-18T04:37:54;8.50;99.90
10828;DHT22;5467;59.334;13.512;2022-10-18T04:40:21;8.50;99.90
10828;DHT22;5467;59.334;13.512;2022-10-18T04:42:48;8.40;99.90
10828;DHT22;5467;59.334;13.512;2022-10-18T04:45:15;8.40;99.90
10828;DHT22;5467;59.334;13.512;2022-10-18T04:47:42;8.60;99.90
10828;DHT22;5467;59.334;13.512;2022-10-18T04:50:09;8.50;99.90
10828;DHT22;5467;59.334;13.512;2022-10-18T04:52:37;8.50;99.90
10828;DHT22;5467;59.334;13.512;2022-10-18T04:55:05;8.40;99.90
10828;DHT22;5467;59.334;13.512;2022-10-18T04:57:32;8.40;99.90
10828;DHT22;5467;59.334;13.512;2022-10-18T04:59:59;8.50;99.90
10828;DHT22;5467;59.334;13.512;2022-10-18T05:02:26;8.50;99.90
10828;DHT22;5467;59.334;13.512;2022-10-18T05:04:52;8.60;99.90
10828;DHT22;5467;59.334;13.512;2022-10-18T05:07:19;8.60;99.90
10828;DHT22;5467;59.334;13.512;2022-10-18T05:09:48;8.50;99.90
10828;DHT22;5467;59.334;13.512;2022-10-18T05:12:15;8.50;99.90
10828;DHT22;5467;59.334;13.512;2022-10-18T05:14:42;8.60;99.90
10828;DHT22;5467;59.334;13.512;2022-10-18T05:17:09;8.60;99.90
10828;DHT22;5467;59.334;13.512;2022-10-18T05:19:36;8.50;99.90
10828;DHT22;5467;59.334;13.512;2022-10-18T05:22:03;8.60;99.90
10828;DHT22;5467;59.334;13.512;2022-10-18T05:24:30;8.60;99.90
10828;DHT22;5467;59.334;13.512;2022-10-18T05:26:59;8.60;99.90
10828;DHT22;5467;59.334;13.512;2022-10-18T05:29:26;8.60;99.90
10828;DHT22;5467;59.334;13.512;2022-10-18T05:31:53;8.70;99.90
10828;DHT22;5467;59.334;13.512;2022-10-18T05:34:20;8.70;99.90
10828;DHT22;5467;59.334;13.512;2022-10-18T05:36:47;8.80;99.90
10828;DHT22;5467;59.334;13.512;2022-10-18T05:39:14;8.70;99.90
10828;DHT22;5467;59.334;13.512;2022-10-18T05:41:41;8.80;99.90
10828;DHT22;5467;59.334;13.512;2022-10-18T05:44:09;8.80;99.90
10828;DHT22;5467;59.334;13.512;2022-10-18T05:46:36;8.70;99.90
10828;DHT22;5467;59.334;13.512;2022-10-18T05:49:03;8.60;99.90
10828;DHT22;5467;59.334;13.512;2022-10-18T05:51:30;8.60;99.90
10828;DHT22;5467;59.334;13.512;2022-10-18T05:53:57;8.80;99.90
10828;DHT22;5467;59.334;13.512;2022-10-18T05:56:25;8.90;99.90
10828;DHT22;5467;59.334;13.512;2022-10-18T05:58:52;8.90;99.90
10828;DHT22;5467;59.334;13.512;2022-10-18T06:01:21;8.90;99.90
10828;DHT22;5467;59.334;13.512;2022-10-18T06:03:48;8.70;99.90
10828;DHT22;5467;59.334;13.512;2022-10-18T06:06:15;8.60;99.90
10828;DHT22;5467;59.334;13.512;2022-10-18T06:08:43;8.60;99.90
10828;DHT22;5467;59.334;13.512;2022-10-18T06:11:11;8.60;99.90
10828;DHT22;5467;59.334;13.512;2022-10-18T06:13:39;8.60;99.90
10828;DHT22;5467;59.334;13.512;2022-10-18T06:16:07;8.60;99.90
10828;DHT22;5467;59.334;13.512;2022-10-18T06:18:36;8.70;99.90
10828;DHT22;5467;59.334;13.512;2022-10-18T06:21:04;8.70;99.90
10828;DHT22;5467;59.334;13.512;2022-10-18T06:23:31;8.70;99.90
10828;DHT22;5467;59.334;13.512;2022-10-18T06:25:59;8.60;99.90
10828;DHT22;5467;59.334;13.512;2022-10-18T06:28:26;8.60;99.90
10828;DHT22;5467;59.334;13.512;2022-10-18T06:30:54;8.60;99.90
10828;DHT22;5467;59.334;13.512;2022-10-18T06:33:21;8.60;99.90
10828;DHT22;5467;59.334;13.512;2022-10-18T06:35:56;8.60;99.90
10828;DHT22;5467;59.334;13.512;2022-10-18T06:38:24;8.70;99.90
10828;DHT22;5467;59.334;13.512;2022-10-18T06:40:52;8.70;99.90
10828;DHT22;5467;59.334;13.512;2022-10-18T06:43:19;8.80;99.90
10828;DHT22;5467;59.334;13.512;2022-10-18T06:45:46;8.80;99.90
10828;DHT22;5467;59.334;13.512;2022-10-18T06:48:13;8.80;99.90
10828;DHT22;5467;59.334;13.512;2022-10-18T06:50:40;8.80;99.90
10828;DHT22;5467;59.334;13.512;2022-10-18T06:53:08;8.80;99.90
10828;DHT22;5467;59.334;13.512;2022-10-18T06:55:35;8.70;99.90
10828;DHT22;5467;59.334;13.512;2022-10-18T06:58:02;8.70;99.90
10828;DHT22;5467;59.334;13.512;2022-10-18T07:00:29;8.80;99.90
10828;DHT22;5467;59.334;13.512;2022-10-18T07:02:56;8.90;99.90
10828;DHT22;5467;59.334;13.512;2022-10-18T07:05:24;9.10;99.90
10828;DHT22;5467;59.334;13.512;2022-10-18T07:07:51;9.00;99.90
10828;DHT22;5467;59.334;13.512;2022-10-18T07:10:19;9.00;99.90
10828;DHT22;5467;59.334;13.512;2022-10-18T07:12:46;9.00;99.90
10828;DHT22;5467;59.334;13.512;2022-10-18T07:15:13;9.10;99.90
10828;DHT22;5467;59.334;13.512;2022-10-18T07:17:42;9.20;99.90
10828;DHT22;5467;59.334;13.512;2022-10-18T07:20:10;9.10;99.90
10828;DHT22;5467;59.334;13.512;2022-10-18T07:22:37;9.10;99.90
10828;DHT22;5467;59.334;13.512;2022-10-18T07:25:04;9.10;99.90
10828;DHT22;5467;59.334;13.512;2022-10-18T07:27:36;9.10;99.90
10828;DHT22;5467;59.334;13.512;2022-10-18T07:30:04;9.20;99.90
10828;DHT22;5467;59.334;13.512;2022-10-18T07:32:31;9.20;99.90
10828;DHT22;5467;59.334;13.512;2022-10-18T07:34:58;9.20;99.90
10828;DHT22;5467;59.334;13.512;2022-10-18T07:37:26;9.30;99.90
10828;DHT22;5467;59.334;13.512;2022-10-18T07:39:53;9.20;99.90
10828;DHT22;5467;59.334;13.512;2022-10-18T07:42:20;9.30;99.90
10828;DHT22;5467;59.334;13.512;2022-10-18T07:44:49;9.40;99.90
10828;DHT22;5467;59.334;13.512;2022-10-18T07:47:16;9.40;99.90
10828;DHT22;5467;59.334;13.512;2022-10-18T07:49:43;9.50;99.90
10828;DHT22;5467;59.334;13.512;2022-10-18T07:52:10;9.40;99.90
10828;DHT22;5467;59.334;13.512;2022-10-18T07:54:37;9.40;99.90
10828;DHT22;5467;59.334;13.512;2022-10-18T07:57:04;9.50;99.90
10828;DHT22;5467;59.334;13.512;2022-10-18T07:59:31;9.50;99.90
10828;DHT22;5467;59.334;13.512;2022-10-18T08:01:59;9.40;99.90
10828;DHT22;5467;59.334;13.512;2022-10-18T08:04:26;9.20;99.90
10828;DHT22;5467;59.334;13.512;2022-10-18T08:06:53;9.30;99.90
10828;DHT22;5467;59.334;13.512;2022-10-18T08:09:20;9.30;99.90
10828;DHT22;5467;59.334;13.512;2022-10-18T08:11:47;9.20;99.90
10828;DHT22;5467;59.334;13.512;2022-10-18T08:14:14;9.20;99.90
10828;DHT22;5467;59.334;13.512;2022-10-18T08:16:40;9.30;99.90
10828;DHT22;5467;59.334;13.512;2022-10-18T08:19:09;9.30;99.90
10828;DHT22;5467;59.334;13.512;2022-10-18T08:21:36;9.30;99.90
10828;DHT22;5467;59.334;13.512;2022-10-18T08:24:03;9.40;99.90
10828;DHT22;5467;59.334;13.512;2022-10-18T08:26:30;9.30;99.90
10828;DHT22;5467;59.334;13.512;2022-10-18T08:28:57;9.20;99.90
10828;DHT22;5467;59.334;13.512;2022-10-18T08:31:24;9.20;99.90
10828;DHT22;5467;59.334;13.512;2022-10-18T08:33:53;9.20;99.90
10828;DHT22;5467;59.334;13.512;2022-10-18T08:36:22;9.10;99.90
10828;DHT22;5467;59.334;13.512;2022-10-18T08:38:49;9.10;99.90
10828;DHT22;5467;59.334;13.512;2022-10-18T08:41:35;9.00;99.90
10828;DHT22;5467;59.334;13.512;2022-10-18T08:44:08;9.00;99.90
10828;DHT22;5467;59.334;13.512;2022-10-18T08:46:40;8.90;99.90
10828;DHT22;5467;59.334;13.512;2022-10-18T08:49:20;8.90;99.90
10828;DHT22;5467;59.334;13.512;2022-10-18T08:51:50;9.10;99.90
10828;DHT22;5467;59.334;13.512;2022-10-18T08:54:23;9.00;99.90
10828;DHT22;5467;59.334;13.512;2022-10-18T08:56:56;9.00;99.90
10828;DHT22;5467;59.334;13.512;2022-10-18T08:59:24;9.10;99.90
10828;DHT22;5467;59.334;13.512;2022-10-18T09:01:59;9.20;99.90
10828;DHT22;5467;59.334;13.512;2022-10-18T09:04:35;9.10;99.90
10828;DHT22;5467;59.334;13.512;2022-10-18T09:07:23;9.10;99.90
10828;DHT22;5467;59.334;13.512;2022-10-18T09:09:57;9.10;99.90
10828;DHT22;5467;59.334;13.512;2022-10-18T09:12:39;9.20;99.90
10828;DHT22;5467;59.334;13.512;2022-10-18T09:15:12;9.20;99.90
10828;DHT22;5467;59.334;13.512;2022-10-18T09:17:50;9.20;99.90
10828;DHT22;5467;59.334;13.512;2022-10-18T09:20:22;9.30;99.90
10828;DHT22;5467;59.334;13.512;2022-10-18T09:22:55;9.20;99.90
10828;DHT22;5467;59.334;13.512;2022-10-18T09:25:27;9.40;99.90
10828;DHT22;5467;59.334;13.512;2022-10-18T09:28:13;9.40;99.90
10828;DHT22;5467;59.334;13.512;2022-10-18T09:30:47;9.40;99.90
10828;DHT22;5467;59.334;13.512;2022-10-18T09:36:10;9.30;99.90
10828;DHT22;5467;59.334;13.512;2022-10-18T09:38:43;9.30;99.90
10828;DHT22;5467;59.334;13.512;2022-10-18T09:41:16;9.40;99.90
10828;DHT22;5467;59.334;13.512;2022-10-18T09:43:52;9.40;99.90
10828;DHT22;5467;59.334;13.512;2022-10-18T09:46:22;9.50;99.90
10828;DHT22;5467;59.334;13.512;2022-10-18T09:48:53;9.60;99.90
10828;DHT22;5467;59.334;13.512;2022-10-18T09:51:24;9.50;99.90
10828;DHT22;5467;59.334;13.512;2022-10-18T09:54:04;9.70;99.90
10828;DHT22;5467;59.334;13.512;2022-10-18T09:56:35;9.80;99.90
10828;DHT22;5467;59.334;13.512;2022-10-18T09:59:03;9.60;99.90
10828;DHT22;5467;59.334;13.512;2022-10-18T10:01:31;9.60;99.90
10828;DHT22;5467;59.334;13.512;2022-10-18T10:03:58;9.60;99.90
10828;DHT22;5467;59.334;13.512;2022-10-18T10:06:27;9.50;99.90
10828;DHT22;5467;59.334;13.512;2022-10-18T10:08:59;9.40;99.90
10828;DHT22;5467;59.334;13.512;2022-10-18T10:11:29;9.50;99.90
10828;DHT22;5467;59.334;13.512;2022-10-18T10:13:57;9.50;99.90
10828;DHT22;5467;59.334;13.512;2022-10-18T10:16:32;9.60;99.90
10828;DHT22;5467;59.334;13.512;2022-10-18T10:18:59;9.70;99.90
10828;DHT22;5467;59.334;13.512;2022-10-18T10:21:27;9.80;99.90
10828;DHT22;5467;59.334;13.512;2022-10-18T10:23:55;9.70;99.90
10828;DHT22;5467;59.334;13.512;2022-10-18T10:26:28;9.60;99.90
10828;DHT22;5467;59.334;13.512;2022-10-18T10:28:56;9.50;99.90
10828;DHT22;5467;59.334;13.512;2022-10-18T10:31:27;9.50;99.90
10828;DHT22;5467;59.334;13.512;2022-10-18T10:33:59;9.60;99.90
10828;DHT22;5467;59.334;13.512;2022-10-18T10:36:27;9.70;99.90
10828;DHT22;5467;59.334;13.512;2022-10-18T10:39:05;9.80;99.90
10828;DHT22;5467;59.334;13.512;2022-10-18T10:41:34;9.80;99.90
10828;DHT22;5467;59.334;13.512;2022-10-18T10:44:03;9.70;99.90
10828;DHT22;5467;59.334;13.512;2022-10-18T10:46:35;9.80;99.90
10828;DHT22;5467;59.334;13.512;2022-10-18T10:49:03;9.80;99.90
10828;DHT22;5467;59.334;13.512;2022-10-18T10:51:32;9.90;99.90
10828;DHT22;5467;59.334;13.512;2022-10-18T10:54:02;9.70;99.90
10828;DHT22;5467;59.334;13.512;2022-10-18T10:56:31;9.80;99.90
10828;DHT22;5467;59.334;13.512;2022-10-18T10:59:11;9.90;99.90
10828;DHT22;5467;59.334;13.512;2022-10-18T11:01:39;10.00;99.90
10828;DHT22;5467;59.334;13.512;2022-10-18T11:04:26;9.90;99.90
10828;DHT22;5467;59.334;13.512;2022-10-18T11:07:00;9.90;99.90
10828;DHT22;5467;59.334;13.512;2022-10-18T11:09:52;9.90;99.90
10828;DHT22;5467;59.334;13.512;2022-10-18T11:12:30;10.00;99.90
10828;DHT22;5467;59.334;13.512;2022-10-18T11:15:16;9.90;99.90
10828;DHT22;5467;59.334;13.512;2022-10-18T11:17:47;9.90;99.90
10828;DHT22;5467;59.334;13.512;2022-10-18T11:20:25;9.90;99.90
10828;DHT22;5467;59.334;13.512;2022-10-18T11:22:59;9.80;99.90
10828;DHT22;5467;59.334;13.512;2022-10-18T11:25:39;9.80;99.90
10828;DHT22;5467;59.334;13.512;2022-10-18T11:28:17;9.70;99.90
10828;DHT22;5467;59.334;13.512;2022-10-18T11:31:02;9.80;99.90
10828;DHT22;5467;59.334;13.512;2022-10-18T11:33:38;9.90;99.90
10828;DHT22;5467;59.334;13.512;2022-10-18T11:36:09;9.80;99.90
10828;DHT22;5467;59.334;13.512;2022-10-18T11:38:43;9.60;99.90
10828;DHT22;5467;59.334;13.512;2022-10-18T11:41:20;9.70;99.90
10828;DHT22;5467;59.334;13.512;2022-10-18T11:43:52;9.90;99.90
10828;DHT22;5467;59.334;13.512;2022-10-18T11:46:29;10.00;99.90
10828;DHT22;5467;59.334;13.512;2022-10-18T11:49:06;10.20;99.90
10828;DHT22;5467;59.334;13.512;2022-10-18T11:51:43;10.20;99.90
10828;DHT22;5467;59.334;13.512;2022-10-18T11:57:16;10.20;99.90
10828;DHT22;5467;59.334;13.512;2022-10-18T11:59:51;10.20;99.90
10828;DHT22;5467;59.334;13.512;2022-10-18T12:02:39;10.40;99.90
10828;DHT22;5467;59.334;13.512;2022-10-18T12:05:10;10.40;99.90
10828;DHT22;5467;59.334;13.512;2022-10-18T12:07:49;10.40;99.90
10828;DHT22;5467;59.334;13.512;2022-10-18T12:10:19;10.40;99.90
10828;DHT22;5467;59.334;13.512;2022-10-18T12:12:50;10.30;99.90
10828;DHT22;5467;59.334;13.512;2022-10-18T12:15:21;10.40;99.90
10828;DHT22;5467;59.334;13.512;2022-10-18T12:17:52;10.40;99.90
10828;DHT22;5467;59.334;13.512;2022-10-18T12:20:24;10.50;99.90
10828;DHT22;5467;59.334;13.512;2022-10-18T12:22:58;10.60;99.90
10828;DHT22;5467;59.334;13.512;2022-10-18T12:25:27;10.70;99.90
10828;DHT22;5467;59.334;13.512;2022-10-18T12:27:57;10.60;99.90
10828;DHT22;5467;59.334;13.512;2022-10-18T12:30:30;10.50;99.90
10828;DHT22;5467;59.334;13.512;2022-10-18T12:33:04;10.40;99.90
10828;DHT22;5467;59.334;13.512;2022-10-18T12:35:46;10.30;99.90
10828;DHT22;5467;59.334;13.512;2022-10-18T12:38:20;10.30;99.90
10828;DHT22;5467;59.334;13.512;2022-10-18T12:40:49;10.30;99.90
10828;DHT22;5467;59.334;13.512;2022-10-18T12:43:21;10.40;99.90
10828;DHT22;5467;59.334;13.512;2022-10-18T12:45:52;10.40;99.90
10828;DHT22;5467;59.334;13.512;2022-10-18T12:48:31;10.50;99.90
10828;DHT22;5467;59.334;13.512;2022-10-18T12:51:04;10.70;99.90
10828;DHT22;5467;59.334;13.512;2022-10-18T12:53:32;10.80;99.90
10828;DHT22;5467;59.334;13.512;2022-10-18T13:02:27;10.70;99.90
10828;DHT22;5467;59.334;13.512;2022-10-18T13:04:57;10.70;99.90
10828;DHT22;5467;59.334;13.512;2022-10-18T13:07:37;10.70;99.90
10828;DHT22;5467;59.334;13.512;2022-10-18T13:10:38;10.60;99.90
10828;DHT22;5467;59.334;13.512;2022-10-18T13:13:38;10.40;99.90
10828;DHT22;5467;59.334;13.512;2022-10-18T13:16:26;10.20;99.90
10828;DHT22;5467;59.334;13.512;2022-10-18T13:18:56;10.50;99.90
10828;DHT22;5467;59.334;13.512;2022-10-18T13:21:47;10.50;99.90
10828;DHT22;5467;59.334;13.512;2022-10-18T13:24:23;10.40;99.90
10828;DHT22;5467;59.334;13.512;2022-10-18T13:27:05;10.40;99.90
10828;DHT22;5467;59.334;13.512;2022-10-18T13:29:58;10.30;99.90
10828;DHT22;5467;59.334;13.512;2022-10-18T13:32:31;10.10;99.90
10828;DHT22;5467;59.334;13.512;2022-10-18T13:35:00;9.90;99.90
10828;DHT22;5467;59.334;13.512;2022-10-18T13:37:28;9.80;99.90
10828;DHT22;5467;59.334;13.512;2022-10-18T13:40:14;9.80;99.90
10828;DHT22;5467;59.334;13.512;2022-10-18T13:42:41;9.60;99.90
10828;DHT22;5467;59.334;13.512;2022-10-18T13:45:43;9.50;99.90
10828;DHT22;5467;59.334;13.512;2022-10-18T13:48:46;9.40;99.90
10828;DHT22;5467;59.334;13.512;2022-10-18T13:51:41;9.30;99.90
10828;DHT22;5467;59.334;13.512;2022-10-18T13:54:28;9.30;99.90
10828;DHT22;5467;59.334;13.512;2022-10-18T13:57:10;9.30;99.90
10828;DHT22;5467;59.334;13.512;2022-10-18T14:02:51;8.90;99.90
10828;DHT22;5467;59.334;13.512;2022-10-18T14:05:46;9.00;99.90
10828;DHT22;5467;59.334;13.512;2022-10-18T14:08:17;8.80;99.90
10828;DHT22;5467;59.334;13.512;2022-10-18T14:10:55;8.80;99.90
10828;DHT22;5467;59.334;13.512;2022-10-18T14:13:29;8.90;99.90
10828;DHT22;5467;59.334;13.512;2022-10-18T14:16:02;9.00;99.90
10828;DHT22;5467;59.334;13.512;2022-10-18T14:18:33;9.00;99.90
10828;DHT22;5467;59.334;13.512;2022-10-18T14:21:05;9.00;99.90
10828;DHT22;5467;59.334;13.512;2022-10-18T14:23:35;9.00;99.90
10828;DHT22;5467;59.334;13.512;2022-10-18T14:26:10;8.90;99.90
10828;DHT22;5467;59.334;13.512;2022-10-18T14:28:38;8.90;99.90
10828;DHT22;5467;59.334;13.512;2022-10-18T14:31:11;8.90;99.90
10828;DHT22;5467;59.334;13.512;2022-10-18T14:33:41;9.00;99.90
10828;DHT22;5467;59.334;13.512;2022-10-18T14:36:11;9.00;99.90
10828;DHT22;5467;59.334;13.512;2022-10-18T14:38:46;9.00;99.90
10828;DHT22;5467;59.334;13.512;2022-10-18T14:41:16;9.00;99.90
10828;DHT22;5467;59.334;13.512;2022-10-18T14:43:46;9.00;99.90
10828;DHT22;5467;59.334;13.512;2022-10-18T14:46:19;9.00;99.90
10828;DHT22;5467;59.334;13.512;2022-10-18T14:48:56;9.10;99.90
10828;DHT22;5467;59.334;13.512;2022-10-18T14:51:24;9.10;99.90
10828;DHT22;5467;59.334;13.512;2022-10-18T14:53:52;9.00;99.90
10828;DHT22;5467;59.334;13.512;2022-10-18T14:56:24;9.00;99.90
10828;DHT22;5467;59.334;13.512;2022-10-18T14:58:52;8.90;99.90
10828;DHT22;5467;59.334;13.512;2022-10-18T15:01:23;8.90;99.90
10828;DHT22;5467;59.334;13.512;2022-10-18T15:03:54;8.80;99.90
10828;DHT22;5467;59.334;13.512;2022-10-18T15:06:22;8.90;99.90
10828;DHT22;5467;59.334;13.512;2022-10-18T15:08:52;8.90;99.90
10828;DHT22;5467;59.334;13.512;2022-10-18T15:11:22;8.80;99.90
10828;DHT22;5467;59.334;13.512;2022-10-18T15:13:52;8.90;99.90
10828;DHT22;5467;59.334;13.512;2022-10-18T15:16:23;8.90;99.90
10828;DHT22;5467;59.334;13.512;2022-10-18T15:19:02;8.80;99.90
10828;DHT22;5467;59.334;13.512;2022-10-18T15:21:30;8.80;99.90
10828;DHT22;5467;59.334;13.512;2022-10-18T15:24:19;8.70;99.90
10828;DHT22;5467;59.334;13.512;2022-10-18T15:26:49;8.70;99.90
10828;DHT22;5467;59.334;13.512;2022-10-18T15:29:18;8.60;99.90
10828;DHT22;5467;59.334;13.512;2022-10-18T15:31:47;8.50;99.90
10828;DHT22;5467;59.334;13.512;2022-10-18T15:34:17;8.60;99.90
10828;DHT22;5467;59.334;13.512;2022-10-18T15:36:46;8.50;99.90
10828;DHT22;5467;59.334;13.512;2022-10-18T15:39:15;8.50;99.90
10828;DHT22;5467;59.334;13.512;2022-10-18T15:41:46;8.40;99.90
10828;DHT22;5467;59.334;13.512;2022-10-18T15:44:22;8.20;99.90
10828;DHT22;5467;59.334;13.512;2022-10-18T15:46:50;8.20;99.90
10828;DHT22;5467;59.334;13.512;2022-10-18T15:49:52;8.20;99.90
10828;DHT22;5467;59.334;13.512;2022-10-18T15:52:42;8.10;99.90
10828;DHT22;5467;59.334;13.512;2022-10-18T15:58:23;7.90;99.90
10828;DHT22;5467;59.334;13.512;2022-10-18T16:00:53;7.80;99.90
10828;DHT22;5467;59.334;13.512;2022-10-18T16:03:21;7.70;99.90
10828;DHT22;5467;59.334;13.512;2022-10-18T16:05:52;7.60;99.90
10828;DHT22;5467;59.334;13.512;2022-10-18T16:08:21;7.50;99.90
10828;DHT22;5467;59.334;13.512;2022-10-18T16:10:49;7.40;99.90
10828;DHT22;5467;59.334;13.512;2022-10-18T16:13:16;7.40;99.90
10828;DHT22;5467;59.334;13.512;2022-10-18T16:15:43;7.40;99.90
10828;DHT22;5467;59.334;13.512;2022-10-18T16:18:16;7.40;99.90
10828;DHT22;5467;59.334;13.512;2022-10-18T16:20:43;7.40;99.90
10828;DHT22;5467;59.334;13.512;2022-10-18T16:23:19;7.30;99.90
10828;DHT22;5467;59.334;13.512;2022-10-18T16:25:46;7.20;99.90
10828;DHT22;5467;59.334;13.512;2022-10-18T16:28:15;7.20;99.90
10828;DHT22;5467;59.334;13.512;2022-10-18T16:30:47;7.20;99.90